createdAt,value
2023-02-26T00:02:10.836Z,101778.88
2023-02-26T00:04:33.200Z,101777.44
2023-02-26T00:06:58.032Z,101782.88
2023-02-26T00:09:23.007Z,101783.72
2023-02-26T00:11:47.045Z,101789.38
2023-02-26T00:14:15.807Z,101788.31
2023-02-26T00:16:38.968Z,101792.09
2023-02-26T00:19:07.269Z,101790.47
2023-02-26T00:21:32.649Z,101793.94
2023-02-26T00:23:55.695Z,101800.16
2023-02-26T00:26:18.575Z,101790.41
2023-02-26T00:28:40.827Z,101798.53
2023-02-26T00:31:02.975Z,101801.25
2023-02-26T00:33:25.112Z,101798.53
2023-02-26T00:35:47.488Z,101811.53
2023-02-26T00:38:14.683Z,101808.25
2023-02-26T00:40:48.869Z,101821.00
2023-02-26T00:43:17.821Z,101821.25
2023-02-26T00:45:51.339Z,101823.38
2023-02-26T00:48:47.637Z,101838.03
2023-02-26T00:51:30.530Z,101845.00
2023-02-26T00:54:19.278Z,101839.00
2023-02-26T00:56:40.858Z,101847.63
2023-02-26T00:59:02.468Z,101845.41
2023-02-26T01:01:24.172Z,101844.03
2023-02-26T01:03:46.180Z,101846.72
2023-02-26T01:06:17.009Z,101844.25
2023-02-26T01:08:53.038Z,101841.31
2023-02-26T01:11:15.129Z,101843.19
2023-02-26T01:13:37.001Z,101845.06
2023-02-26T01:16:12.201Z,101842.13
2023-02-26T01:18:46.907Z,101840.47
2023-02-26T01:21:17.564Z,101838.00
2023-02-26T01:23:46.795Z,101834.22
2023-02-26T01:26:22.011Z,101842.34
2023-02-26T01:28:44.389Z,101849.91
2023-02-26T01:31:37.359Z,101849.91
2023-02-26T01:34:19.974Z,101848.50
2023-02-26T01:36:54.566Z,101852.31
2023-02-26T01:39:36.360Z,101855.03
2023-02-26T01:42:19.795Z,101848.19
2023-02-26T01:45:11.960Z,101865.53
2023-02-26T01:47:57.178Z,101864.97
2023-02-26T01:50:29.822Z,101868.75
2023-02-26T01:53:19.265Z,101864.38
2023-02-26T01:55:44.480Z,101868.16
2023-02-26T01:58:06.162Z,101876.06
2023-02-26T02:00:30.410Z,101869.81
2023-02-26T02:02:52.197Z,101879.34
2023-02-26T02:05:33.574Z,101878.28
2023-02-26T02:07:56.811Z,101879.94
2023-02-26T02:10:20.037Z,101892.44
2023-02-26T02:13:03.606Z,101896.53
2023-02-26T02:15:58.178Z,101891.38
2023-02-26T02:18:44.383Z,101889.47
2023-02-26T02:21:53.777Z,101895.97
2023-02-26T02:25:04.943Z,101892.66
2023-02-26T02:27:35.510Z,101912.75
2023-02-26T02:30:29.424Z,101909.22
2023-02-26T02:32:59.518Z,101912.97
2023-02-26T02:35:32.695Z,101914.63
2023-02-26T02:38:11.367Z,101928.78
2023-02-26T02:40:40.147Z,101917.94
2023-02-26T02:43:11.908Z,101922.88
2023-02-26T02:45:49.312Z,101928.06
2023-02-26T02:48:22.244Z,101933.22
2023-02-26T02:50:53.779Z,101929.47
2023-02-26T02:53:24.292Z,101934.06
2023-02-26T02:56:25.794Z,101938.44
2023-02-26T02:58:59.646Z,101938.44
2023-02-26T03:01:26.205Z,101943.03
2023-02-26T03:04:11.417Z,101947.97
2023-02-26T03:06:33.797Z,101943.84
2023-02-26T03:08:56.378Z,101946.81
2023-02-26T03:11:18.627Z,101949.03
2023-02-26T03:13:42.424Z,101961.53
2023-02-26T03:16:35.985Z,101956.34
2023-02-26T03:19:34.296Z,101963.91
2023-02-26T03:22:14.765Z,101965.22
2023-02-26T03:25:13.222Z,101976.06
2023-02-26T03:28:01.091Z,101979.63
2023-02-26T03:30:53.553Z,101981.25
2023-02-26T03:33:30.952Z,101985.88
2023-02-26T03:36:07.791Z,101986.69
2023-02-26T03:38:49.658Z,101986.38
2023-02-26T03:41:23.331Z,101997.69
2023-02-26T03:43:54.649Z,102002.50
2023-02-26T03:46:31.979Z,102000.06
2023-02-26T03:49:00.529Z,102008.44
2023-02-26T03:51:26.678Z,102001.84
2023-02-26T03:54:31.202Z,102005.28
2023-02-26T03:57:12.930Z,102003.28
2023-02-26T03:59:52.690Z,101995.03
2023-02-26T04:02:47.151Z,102012.63
2023-02-26T04:05:18.567Z,102009.53
2023-02-26T04:07:41.959Z,102009.44
2023-02-26T04:10:04.465Z,102018.88
2023-02-26T04:12:29.083Z,102010.38
2023-02-26T04:14:51.315Z,102019.00
2023-02-26T04:17:12.904Z,102024.91
2023-02-26T04:19:35.339Z,102026.19
2023-02-26T04:21:57.274Z,102027.25
2023-02-26T04:24:19.083Z,102031.75
2023-02-26T04:26:40.791Z,102031.13
2023-02-26T04:29:02.843Z,102037.63
2023-02-26T04:31:24.860Z,102041.66
2023-02-26T04:33:46.768Z,102035.63
2023-02-26T04:36:09.131Z,102041.53
2023-02-26T04:38:31.158Z,102049.06
2023-02-26T04:40:52.789Z,102057.41
2023-02-26T04:43:15.094Z,102062.03
2023-02-26T04:45:48.013Z,102065.81
2023-02-26T04:48:09.640Z,102069.81
2023-02-26T04:50:31.531Z,102074.63
2023-02-26T04:52:53.274Z,102076.75
2023-02-26T04:55:15.248Z,102083.25
2023-02-26T04:57:36.830Z,102077.22
2023-02-26T04:59:58.610Z,102086.41
2023-02-26T05:02:25.514Z,102088.28
2023-02-26T05:04:47.584Z,102080.84
2023-02-26T05:07:09.473Z,102082.97
2023-02-26T05:09:31.074Z,102089.47
2023-02-26T05:11:52.873Z,102086.97
2023-02-26T05:14:16.135Z,102095.34
2023-02-26T05:16:38.487Z,102099.09
2023-02-26T05:19:00.159Z,102100.38
2023-02-26T05:21:22.271Z,102098.97
2023-02-26T05:23:44.676Z,102109.22
2023-02-26T05:26:06.263Z,102105.69
2023-02-26T05:28:28.438Z,102103.19
2023-02-26T05:30:50.212Z,102117.81
2023-02-26T05:33:11.852Z,102110.16
2023-02-26T05:35:33.664Z,102111.19
2023-02-26T05:37:55.216Z,102114.75
2023-02-26T05:40:18.049Z,102115.56
2023-02-26T05:42:40.359Z,102119.09
2023-02-26T05:45:02.013Z,102116.38
2023-02-26T05:47:24.059Z,102125.09
2023-02-26T05:49:45.728Z,102124.28
2023-02-26T05:52:07.475Z,102130.06
2023-02-26T05:54:29.714Z,102137.50
2023-02-26T05:56:51.718Z,102126.66
2023-02-26T05:59:13.356Z,102134.56
2023-02-26T06:01:37.237Z,102142.44
2023-02-26T06:03:58.834Z,102140.34
2023-02-26T06:06:21.655Z,102142.22
2023-02-26T06:08:43.482Z,102150.09
2023-02-26T06:11:05.984Z,102152.81
2023-02-26T06:13:27.670Z,102158.84
2023-02-26T06:15:53.638Z,102168.63
2023-02-26T06:18:15.297Z,102167.56
2023-02-26T06:20:37.302Z,102175.69
2023-02-26T06:22:58.945Z,102173.59
2023-02-26T06:25:20.563Z,102173.94
2023-02-26T07:25:27.755Z,102293.88
2023-02-26T07:28:50.481Z,102293.44
2023-02-26T07:31:22.733Z,102294.47
2023-02-26T07:33:48.276Z,102304.88
2023-02-26T07:36:11.480Z,102309.84
2023-02-26T07:38:36.027Z,102301.84
2023-02-26T07:40:59.054Z,102307.63
2023-02-26T07:43:22.154Z,102304.81
2023-02-26T07:45:45.238Z,102311.44
2023-02-26T07:48:08.381Z,102316.38
2023-02-26T07:50:31.942Z,102312.84
2023-02-26T07:52:59.271Z,102319.09
2023-02-26T07:55:27.978Z,102315.91
2023-02-26T07:57:50.470Z,102319.13
2023-02-26T08:00:13.527Z,102329.03
2023-02-26T08:02:35.404Z,102326.56
2023-02-26T08:04:57.455Z,102333.75
2023-02-26T08:07:19.940Z,102329.06
2023-02-26T08:09:41.672Z,102327.88
2023-02-26T08:12:03.692Z,102334.97
2023-02-26T08:14:25.711Z,102329.28
2023-02-26T08:16:47.389Z,102344.41
2023-02-26T08:19:09.369Z,102340.41
2023-02-26T08:21:31.517Z,102344.56
2023-02-26T08:23:54.191Z,102347.72
2023-02-26T08:26:15.967Z,102345.59
2023-02-26T08:28:37.876Z,102350.81
2023-02-26T08:31:00.975Z,102350.66
2023-02-26T08:33:25.632Z,102351.63
2023-02-26T08:35:48.372Z,102358.13
2023-02-26T08:38:10.124Z,102365.06
2023-02-26T08:40:31.733Z,102369.78
2023-02-26T08:42:53.412Z,102374.28
2023-02-26T08:45:15.327Z,102379.03
2023-02-26T08:47:42.310Z,102381.84
2023-02-26T08:50:12.026Z,102382.19
2023-02-26T08:52:33.957Z,102382.88
2023-02-26T08:54:55.621Z,102387.00
2023-02-26T08:57:17.524Z,102386.06
2023-02-26T08:59:39.289Z,102395.75
2023-02-26T09:02:01.076Z,102400.19
2023-02-26T09:04:22.927Z,102406.72
2023-02-26T09:06:44.718Z,102410.63
2023-02-26T09:09:06.404Z,102419.44
2023-02-26T09:11:30.653Z,102417.69
2023-02-26T09:13:52.834Z,102421.31
2023-02-26T09:16:14.669Z,102430.16
2023-02-26T09:18:36.598Z,102427.78
2023-02-26T09:20:58.277Z,102428.13
2023-02-26T09:23:20.045Z,102431.78
2023-02-26T09:25:41.668Z,102428.81
2023-02-26T09:28:03.879Z,102437.09
2023-02-26T09:30:25.660Z,102442.97
2023-02-26T09:32:47.388Z,102443.16
2023-02-26T09:35:09.996Z,102452.00
2023-02-26T09:37:32.283Z,102456.22
2023-02-26T09:39:54.972Z,102446.25
2023-02-26T09:42:44.604Z,102457.31
2023-02-26T09:45:25.088Z,102462.03
2023-02-26T09:47:52.926Z,102465.91
2023-02-26T09:50:43.967Z,102466.25
2023-02-26T09:53:17.172Z,102473.44
2023-02-26T09:55:50.152Z,102475.66
2023-02-26T09:58:27.096Z,102472.63
2023-02-26T10:01:06.498Z,102485.44
2023-02-26T10:03:56.854Z,102488.56
2023-02-26T10:06:31.281Z,102492.53
2023-02-26T10:09:13.416Z,102492.03
2023-02-26T10:11:53.304Z,102498.16
2023-02-26T10:15:00.184Z,102493.19
2023-02-26T10:17:50.602Z,102506.09
2023-02-26T10:20:28.305Z,102504.84
2023-02-26T10:23:16.401Z,102503.19
2023-02-26T10:25:46.662Z,102498.81
2023-02-26T10:28:27.083Z,102498.81
2023-02-26T10:31:05.247Z,102501.59
2023-02-26T10:33:40.576Z,102500.28
2023-02-26T10:36:21.924Z,102496.16
2023-02-26T10:38:48.997Z,102510.38
2023-02-26T10:41:19.253Z,102502.78
2023-02-26T10:43:47.651Z,102505.41
2023-02-26T10:46:38.003Z,102495.50
2023-02-26T10:49:37.778Z,102499.34
2023-02-26T10:52:13.690Z,102501.16
2023-02-26T10:54:44.643Z,102514.81
2023-02-26T10:57:20.783Z,102505.88
2023-02-26T10:59:42.481Z,102510.63
2023-02-26T11:02:04.341Z,102503.84
2023-02-26T11:04:28.029Z,102504.41
2023-02-26T11:07:04.048Z,102516.44
2023-02-26T11:09:37.999Z,102520.16
2023-02-26T11:12:12.804Z,102512.53
2023-02-26T11:14:34.752Z,102512.66
2023-02-26T11:17:00.634Z,102510.31
2023-02-26T11:19:30.976Z,102516.97
2023-02-26T11:21:53.444Z,102529.03
2023-02-26T11:24:34.232Z,102515.34
2023-02-26T11:27:04.222Z,102519.47
2023-02-26T11:29:26.594Z,102500.91
2023-02-26T11:31:52.596Z,102506.09
2023-02-26T11:34:14.391Z,102498.50
2023-02-26T11:36:44.090Z,102495.06
2023-02-26T11:39:18.644Z,102500.84
2023-02-26T11:41:41.997Z,102509.63
2023-02-26T11:44:22.127Z,102497.88
2023-02-26T11:46:53.935Z,102503.88
2023-02-26T11:49:21.775Z,102492.94
2023-02-26T11:51:49.391Z,102509.06
2023-02-26T11:54:27.298Z,102492.69
2023-02-26T11:56:49.121Z,102493.84
2023-02-26T11:59:18.559Z,102495.59
2023-02-26T12:01:43.053Z,102507.66
2023-02-26T12:04:04.832Z,102514.16
2023-02-26T12:06:27.209Z,102502.00
2023-02-26T12:08:49.267Z,102488.72
2023-02-26T12:11:56.478Z,102488.50
2023-02-26T12:14:34.295Z,102489.72
2023-02-26T12:17:09.642Z,102485.19
2023-02-26T12:19:54.994Z,102493.28
2023-02-26T12:23:35.029Z,102497.41
2023-02-26T12:26:28.235Z,102491.09
2023-02-26T12:29:20.173Z,102488.34
2023-02-26T12:32:04.715Z,102485.56
2023-02-26T12:34:43.688Z,102476.56
2023-02-26T12:37:34.740Z,102478.81
2023-02-26T12:40:20.751Z,102479.69
2023-02-26T12:43:10.291Z,102469.59
2023-02-26T12:45:47.472Z,102487.03
2023-02-26T12:48:39.198Z,102482.16
2023-02-26T12:51:38.876Z,102475.63
2023-02-26T12:54:18.474Z,102486.03
2023-02-26T12:56:56.744Z,102482.16
2023-02-26T12:59:45.210Z,102471.50
2023-02-26T13:02:56.291Z,102481.63
2023-02-26T13:06:02.212Z,102461.63
2023-02-26T13:08:38.633Z,102467.47
2023-02-26T13:11:39.602Z,102467.53
2023-02-26T13:14:21.960Z,102472.22
2023-02-26T13:17:22.417Z,102472.47
2023-02-26T13:19:50.916Z,102473.31
2023-02-26T13:22:22.650Z,102471.97
2023-02-26T13:25:02.046Z,102476.91
2023-02-26T13:27:32.918Z,102474.41
2023-02-26T13:30:18.779Z,102477.16
2023-02-26T13:32:44.032Z,102475.69
2023-02-26T13:35:31.615Z,102471.88
2023-02-26T13:37:59.087Z,102482.81
2023-02-26T13:41:00.725Z,102472.41
2023-02-26T13:44:15.230Z,102472.47
2023-02-26T13:47:28.923Z,102479.03
2023-02-26T13:49:56.648Z,102475.44
2023-02-26T13:52:33.482Z,102469.97
2023-02-26T13:54:57.284Z,102470.78
2023-02-26T13:57:42.417Z,102477.94
2023-02-26T14:00:23.358Z,102469.53
2023-02-26T14:03:33.266Z,102474.22
2023-02-26T14:06:43.541Z,102460.50
2023-02-26T14:09:26.630Z,102472.81
2023-02-26T14:12:02.208Z,102466.50
2023-02-26T14:14:55.549Z,102470.63
2023-02-26T14:17:18.719Z,102469.53
2023-02-26T14:20:24.099Z,102465.97
2023-02-26T14:23:09.928Z,102463.78
2023-02-26T14:25:48.267Z,102465.16
2023-02-26T14:28:25.344Z,102467.59
2023-02-26T14:30:52.853Z,102471.66
2023-02-26T14:33:27.339Z,102477.44
2023-02-26T14:35:53.250Z,102477.44
2023-02-26T14:38:24.630Z,102471.66
2023-02-26T14:41:00.012Z,102482.91
2023-02-26T14:43:43.360Z,102477.16
2023-02-26T14:46:08.059Z,102482.66
2023-02-26T14:48:30.470Z,102478.03
2023-02-26T14:51:49.685Z,102475.31
2023-02-26T14:54:57.421Z,102475.81
2023-02-26T14:58:13.020Z,102476.66
2023-02-26T15:01:31.965Z,102485.75
2023-02-26T15:04:27.957Z,102485.47
2023-02-26T15:07:18.128Z,102487.66
2023-02-26T15:09:57.366Z,102494.38
2023-02-26T15:12:44.330Z,102484.19
2023-02-26T15:15:24.838Z,102472.97
2023-02-26T15:18:20.046Z,102489.38
2023-02-26T15:21:40.202Z,102491.56
2023-02-26T15:24:03.568Z,102483.09
2023-02-26T15:26:32.510Z,102488.78
2023-02-26T15:28:56.291Z,102495.66
2023-02-26T15:31:35.740Z,102494.25
2023-02-26T15:33:58.996Z,102494.25
2023-02-26T15:36:24.096Z,102497.00
2023-02-26T15:38:54.891Z,102495.38
2023-02-26T15:41:18.405Z,102487.09
2023-02-26T15:43:49.922Z,102504.31
2023-02-26T15:46:12.191Z,102493.06
2023-02-26T15:48:42.204Z,102499.09
2023-02-26T15:51:09.145Z,102495.53
2023-02-26T15:53:43.467Z,102503.22
2023-02-26T15:56:19.786Z,102497.19
2023-02-26T15:58:53.103Z,102495.75
2023-02-26T16:01:19.946Z,102502.34
2023-02-26T16:03:41.786Z,102505.09
2023-02-26T16:06:04.239Z,102504.84
2023-02-26T16:08:27.114Z,102501.03
2023-02-26T16:10:49.426Z,102518.50
2023-02-26T16:13:34.375Z,102513.00
2023-02-26T16:16:04.617Z,102512.19
2023-02-26T16:18:26.823Z,102515.94
2023-02-26T16:20:56.583Z,102524.44
2023-02-26T16:23:24.672Z,102522.47
2023-02-26T16:26:05.281Z,102524.91
2023-02-26T16:28:37.834Z,102520.41
2023-02-26T16:31:04.559Z,102520.88
2023-02-26T16:33:27.824Z,102528.53
2023-02-26T16:35:57.499Z,102523.84
2023-02-26T16:38:25.809Z,102524.91
2023-02-26T16:40:58.000Z,102534.72
2023-02-26T16:43:50.423Z,102540.44
2023-02-26T16:46:19.608Z,102536.31
2023-02-26T16:48:53.920Z,102539.56
2023-02-26T16:51:22.287Z,102538.13
2023-02-26T16:53:53.508Z,102544.34
2023-02-26T16:56:29.441Z,102541.31
2023-02-26T16:59:14.601Z,102554.91
2023-02-26T17:01:47.186Z,102550.47
2023-02-26T17:04:15.567Z,102550.66
2023-02-26T17:06:41.981Z,102554.47
2023-02-26T17:09:10.251Z,102557.66
2023-02-26T17:11:38.818Z,102559.75
2023-02-26T17:14:19.197Z,102572.00
2023-02-26T17:16:41.341Z,102581.31
2023-02-26T17:19:03.255Z,102574.38
2023-02-26T17:21:25.480Z,102582.75
2023-02-26T17:23:47.621Z,102585.56
2023-02-26T17:26:09.450Z,102588.22
2023-02-26T17:28:36.059Z,102583.28
2023-02-26T17:30:58.040Z,102589.50
2023-02-26T17:33:20.835Z,102582.28
2023-02-26T17:35:44.312Z,102593.72
2023-02-26T17:38:07.234Z,102586.03
2023-02-26T17:40:38.413Z,102591.13
2023-02-26T17:43:00.150Z,102599.84
2023-02-26T17:45:22.093Z,102598.09
2023-02-26T17:47:44.471Z,102594.22
2023-02-26T17:50:36.436Z,102597.91
2023-02-26T17:52:58.314Z,102607.94
2023-02-26T17:55:20.041Z,102598.00
2023-02-26T17:57:42.680Z,102600.91
2023-02-26T18:00:05.479Z,102601.06
2023-02-26T18:02:36.786Z,102605.59
2023-02-26T18:04:59.731Z,102604.19
2023-02-26T18:07:24.313Z,102613.19
2023-02-26T18:09:48.546Z,102616.16
2023-02-26T18:12:19.932Z,102613.09
2023-02-26T18:14:41.943Z,102616.28
2023-02-26T18:17:03.724Z,102618.94
2023-02-26T18:19:25.437Z,102613.16
2023-02-26T18:21:47.165Z,102620.97
2023-02-26T18:24:08.902Z,102617.69
2023-02-26T18:26:33.402Z,102617.31
2023-02-26T18:28:55.699Z,102624.91
2023-02-26T18:31:19.817Z,102623.50
2023-02-26T18:33:43.995Z,102627.31
2023-02-26T18:36:07.895Z,102629.22
2023-02-26T18:38:29.694Z,102627.53
2023-02-26T18:40:53.545Z,102633.25
2023-02-26T18:43:15.850Z,102634.31
2023-02-26T18:45:37.651Z,102636.44
2023-02-26T18:47:59.304Z,102640.00
2023-02-26T18:50:21.172Z,102642.50
2023-02-26T18:52:43.849Z,102647.94
2023-02-26T18:55:06.298Z,102646.53
2023-02-26T18:57:28.118Z,102653.88
2023-02-26T18:59:49.798Z,102648.06
2023-02-26T19:02:13.794Z,102653.53
2023-02-26T19:04:35.488Z,102660.28
2023-02-26T19:06:57.332Z,102652.59
2023-02-26T19:09:19.171Z,102654.13
2023-02-26T19:11:42.483Z,102666.72
2023-02-26T19:14:05.590Z,102656.03
2023-02-26T19:16:28.541Z,102660.91
2023-02-26T19:18:51.070Z,102670.38
2023-02-26T19:21:12.711Z,102671.47
2023-02-26T19:23:34.527Z,102673.34
2023-02-26T19:25:56.326Z,102667.31
2023-02-26T19:28:18.074Z,102677.41
2023-02-26T19:30:39.838Z,102673.59
2023-02-26T19:33:02.137Z,102674.41
2023-02-26T19:35:27.011Z,102682.25
2023-02-26T19:37:48.970Z,102686.88
2023-02-26T19:40:16.338Z,102681.66
2023-02-26T19:42:38.094Z,102691.97
2023-02-26T19:45:01.193Z,102693.50
2023-02-26T19:47:23.505Z,102691.63
2023-02-26T19:49:45.154Z,102697.28
2023-02-26T19:52:08.562Z,102699.09
2023-02-26T19:54:30.938Z,102700.13
2023-02-26T19:56:52.726Z,102698.72
2023-02-26T19:59:14.353Z,102695.38
2023-02-26T20:01:36.263Z,102705.72
2023-02-26T20:03:58.015Z,102702.16
2023-02-26T20:06:22.085Z,102709.97
2023-02-26T20:08:43.819Z,102709.84
2023-02-26T20:11:06.628Z,102712.56
2023-02-26T20:13:30.497Z,102710.06
2023-02-26T20:15:53.543Z,102708.66
2023-02-26T20:18:16.087Z,102711.16
2023-02-26T20:20:38.116Z,102718.72
2023-02-26T20:23:00.815Z,102709.38
2023-02-26T20:25:22.728Z,102717.41
2023-02-26T20:27:45.084Z,102720.59
2023-02-26T20:30:08.344Z,102727.09
2023-02-26T20:32:30.230Z,102729.81
2023-02-26T20:34:52.152Z,102725.69
2023-02-26T20:37:13.814Z,102734.69
2023-02-26T20:39:36.038Z,102728.88
2023-02-26T20:41:57.797Z,102730.19
2023-02-26T20:44:19.657Z,102735.63
2023-02-26T20:46:41.441Z,102732.06
2023-02-26T20:49:03.544Z,102744.72
2023-02-26T20:51:25.703Z,102742.22
2023-02-26T20:53:47.606Z,102734.75
2023-02-26T20:56:09.391Z,102742.72
2023-02-26T20:58:31.182Z,102747.28
2023-02-26T21:00:56.512Z,102754.03
2023-02-26T21:03:18.329Z,102745.31
2023-02-26T21:05:41.680Z,102753.47
2023-02-26T21:08:04.539Z,102753.69
2023-02-26T21:10:26.446Z,102749.53
2023-02-26T21:12:48.179Z,102744.31
2023-02-26T21:15:12.866Z,102760.03
2023-02-26T21:17:34.481Z,102757.31
2023-02-26T21:19:56.257Z,102755.28
2023-02-26T21:22:19.258Z,102767.25
2023-02-26T21:24:42.177Z,102762.03
2023-02-26T21:27:04.042Z,102760.38
2023-02-26T21:29:25.983Z,102764.38
2023-02-26T21:31:53.220Z,102768.88
2023-02-26T21:34:32.802Z,102767.88
2023-02-26T21:36:55.139Z,102773.78
2023-02-26T21:39:17.341Z,102776.97
2023-02-26T21:41:38.965Z,102768.88
2023-02-26T21:44:00.642Z,102771.00
2023-02-26T21:46:22.868Z,102777.13
2023-02-26T21:48:46.216Z,102782.00
2023-02-26T21:51:08.005Z,102781.00
2023-02-26T21:53:29.754Z,102777.44
2023-02-26T21:55:53.118Z,102784.38
2023-02-26T21:58:14.802Z,102787.09
2023-02-26T22:00:36.440Z,102783.19
2023-02-26T22:02:58.328Z,102783.78
2023-02-26T22:05:20.818Z,102784.69
2023-02-26T22:07:43.080Z,102784.69
2023-02-26T22:10:07.858Z,102788.50
2023-02-26T22:12:29.586Z,102787.63
2023-02-26T22:14:51.802Z,102789.16
2023-02-26T22:17:13.498Z,102794.34
2023-02-26T22:19:35.162Z,102780.16
2023-02-26T22:21:56.927Z,102787.28
2023-02-26T22:24:18.526Z,102782.31
2023-02-26T22:26:40.301Z,102792.56
2023-02-26T22:29:03.610Z,102782.72
2023-02-26T22:31:25.686Z,102782.16
2023-02-26T22:33:47.518Z,102786.72
2023-02-26T22:36:09.745Z,102790.53
2023-02-26T22:38:31.396Z,102785.53
2023-02-26T22:40:53.862Z,102788.47
2023-02-26T22:43:16.260Z,102787.25
2023-02-26T22:45:37.965Z,102787.72
2023-02-26T22:47:59.574Z,102796.94
2023-02-26T22:50:22.552Z,102785.44
2023-02-26T22:52:44.870Z,102791.72
2023-02-26T22:55:07.817Z,102787.56
2023-02-26T22:57:29.518Z,102782.59
2023-02-26T22:59:51.246Z,102790.13
2023-02-26T23:02:13.613Z,102789.72
2023-02-26T23:04:35.491Z,102792.69
2023-02-26T23:06:58.762Z,102797.50
2023-02-26T23:09:21.297Z,102800.22
2023-02-26T23:11:43.021Z,102787.25
2023-02-26T23:14:04.768Z,102787.69
2023-02-26T23:16:26.454Z,102801.50
2023-02-26T23:18:48.219Z,102794.63
2023-02-26T23:21:10.103Z,102801.56
2023-02-26T23:23:32.391Z,102790.31
2023-02-26T23:25:54.202Z,102797.41
2023-02-26T23:28:16.079Z,102795.75
2023-02-26T23:30:38.118Z,102796.78
2023-02-26T23:33:00.530Z,102801.19
2023-02-26T23:35:22.358Z,102800.31
2023-02-26T23:37:44.091Z,102808.47
2023-02-26T23:40:07.665Z,102808.25
2023-02-26T23:42:29.743Z,102812.03
2023-02-26T23:44:51.457Z,102809.31
2023-02-26T23:47:13.250Z,102811.19
2023-02-26T23:49:35.074Z,102809.53
2023-02-26T23:51:56.794Z,102813.75
2023-02-26T23:54:18.504Z,102810.00
2023-02-26T23:56:40.962Z,102815.88
2023-02-26T23:59:04.170Z,102815.88
